Time;durP1;ratioP1;P1;durP2;ratioP2;P2;SDS_P1;SDS_P2;PMS_P1;PMS_P2;Temp;Humidity;BMP_temperature;BMP_pressure;BME280_temperature;BME280_humidity;BME280_pressure;Samples;Min_cycle;Max_cycle;Signal;HPM_P1;HPM_P2
2023/11/16 00:00:14;;;;;;;2.10;1.80;;;;;;;6.39;99.13;97948.21;108986;1257;60958;-82
2023/11/16 00:02:42;;;;;;;2.80;1.70;;;;;;;6.39;98.40;97955.71;109169;1255;60658;-83
2023/11/16 00:05:12;;;;;;;1.90;1.80;;;;;;;6.38;97.78;97953.27;109082;1255;75258;-81
2023/11/16 00:07:45;;;;;;;2.00;1.70;;;;;;;6.38;97.51;97954.89;109271;1256;74539;-82
2023/11/16 00:10:14;;;;;;;1.90;1.50;;;;;;;6.38;97.28;97955.03;109011;1256;71683;-82
2023/11/16 00:12:41;;;;;;;1.60;1.50;;;;;;;6.39;97.08;97961.92;108917;1257;59900;-82
2023/11/16 00:15:09;;;;;;;1.70;1.40;;;;;;;6.38;96.65;97966.76;109042;1256;60174;-81
2023/11/16 00:17:37;;;;;;;2.30;1.90;;;;;;;6.36;96.27;97967.95;108941;1255;73857;-82
2023/11/16 00:20:07;;;;;;;2.60;1.40;;;;;;;6.35;96.56;97966.06;108912;1256;74309;-82
2023/11/16 00:22:34;;;;;;;3.50;2.30;;;;;;;6.35;96.78;97966.40;108869;1256;72408;-82
2023/11/16 00:25:06;;;;;;;2.10;1.90;;;;;;;6.35;96.87;97973.55;108921;1256;61160;-82
2023/11/16 00:27:34;;;;;;;2.30;1.90;;;;;;;6.34;97.05;97974.50;108816;1256;60234;-82
2023/11/16 00:30:03;;;;;;;2.00;1.80;;;;;;;6.34;97.18;97983.21;108781;1256;73811;-82
2023/11/16 00:32:32;;;;;;;3.20;1.90;;;;;;;6.33;97.08;97985.91;108904;1255;73926;-82
2023/11/16 00:35:00;;;;;;;3.00;1.90;;;;;;;6.33;97.49;97988.42;108995;1254;72831;-82
2023/11/16 00:37:27;;;;;;;3.70;3.00;;;;;;;6.32;97.38;97988.66;109085;1254;61316;-81
2023/11/16 00:39:57;;;;;;;2.30;2.00;;;;;;;6.30;97.31;97991.80;109018;1256;59165;-82
2023/11/16 00:42:25;;;;;;;2.70;1.80;;;;;;;6.27;97.01;97996.77;108921;1257;73744;-82
2023/11/16 00:44:52;;;;;;;3.20;2.30;;;;;;;6.25;97.04;97994.56;108910;1260;73515;-83
2023/11/16 00:47:19;;;;;;;3.10;1.70;;;;;;;6.23;97.28;97999.64;108899;1256;72781;-82
2023/11/16 00:49:46;;;;;;;2.30;2.00;;;;;;;6.21;97.18;98005.14;108790;1256;60632;-82
2023/11/16 00:52:14;;;;;;;1.80;1.50;;;;;;;6.19;97.17;98007.20;109000;1256;60188;-82
2023/11/16 00:54:41;;;;;;;3.00;2.10;;;;;;;6.17;97.18;98009.81;108991;1256;75268;-83
2023/11/16 00:57:09;;;;;;;3.20;2.30;;;;;;;6.14;97.02;98020.98;108915;1256;74243;-82
2023/11/16 00:59:36;;;;;;;2.20;2.00;;;;;;;6.11;96.83;98020.77;108994;1255;71833;-82
2023/11/16 01:02:04;;;;;;;2.50;2.10;;;;;;;6.08;96.82;98024.32;108980;1255;61470;-80
2023/11/16 01:04:33;;;;;;;4.10;2.50;;;;;;;6.06;97.31;98033.34;108953;1255;59986;-83
2023/11/16 01:07:00;;;;;;;2.40;2.00;;;;;;;6.04;97.16;98039.86;108955;1255;74826;-82
2023/11/16 01:09:35;;;;;;;2.50;1.70;;;;;;;6.01;96.33;98044.64;108980;1256;73679;-83
2023/11/16 01:12:04;;;;;;;3.40;2.50;;;;;;;5.97;95.14;98041.14;109109;1256;72602;-82
2023/11/16 01:14:31;;;;;;;2.40;2.10;;;;;;;5.94;94.82;98041.07;109211;1256;59936;-83
2023/11/16 01:17:01;;;;;;;3.40;2.80;;;;;;;5.92;94.79;98052.96;108994;1255;59684;-83
2023/11/16 01:19:28;;;;;;;3.00;2.70;;;;;;;5.88;94.33;98055.63;109093;1256;73597;-82
2023/11/16 01:21:57;;;;;;;2.70;2.40;;;;;;;5.85;94.29;98067.40;108959;1256;72340;-82
2023/11/16 01:24:24;;;;;;;2.40;2.00;;;;;;;5.80;93.98;98074.36;109108;1256;71201;-82
2023/11/16 01:26:59;;;;;;;2.40;2.20;;;;;;;5.74;92.50;98076.46;109209;1256;61018;-82
2023/11/16 01:29:27;;;;;;;2.40;2.20;;;;;;;5.67;91.68;98082.01;108974;1256;59921;-82
2023/11/16 01:31:55;;;;;;;2.50;2.50;;;;;;;5.62;91.64;98079.46;108923;1256;73729;-82
2023/11/16 01:34:24;;;;;;;2.50;2.30;;;;;;;5.55;91.11;98088.52;108914;1254;74264;-83
2023/11/16 01:36:51;;;;;;;3.00;2.40;;;;;;;5.47;90.48;98089.16;108988;1254;72834;-82
2023/11/16 01:39:18;;;;;;;2.30;2.00;;;;;;;5.39;90.45;98096.65;108948;1256;59676;-83
2023/11/16 01:41:45;;;;;;;2.70;2.50;;;;;;;5.32;90.46;98102.00;108931;1256;59292;-82
2023/11/16 01:44:12;;;;;;;2.70;2.40;;;;;;;5.27;90.60;98096.56;108953;1256;73821;-82
2023/11/16 01:46:40;;;;;;;2.60;2.30;;;;;;;5.23;90.73;98098.41;108885;1256;74474;-82
2023/11/16 01:49:09;;;;;;;3.20;2.50;;;;;;;5.17;90.16;98101.38;108869;1255;71657;-82
2023/11/16 01:51:37;;;;;;;2.70;2.50;;;;;;;5.11;90.06;98106.46;108899;1260;59567;-81
2023/11/16 01:54:05;;;;;;;2.90;2.70;;;;;;;5.05;90.39;98110.31;108961;1257;60432;-81
2023/11/16 01:56:33;;;;;;;2.90;2.20;;;;;;;5.01;90.81;98116.38;108847;1256;73952;-83
2023/11/16 01:59:01;;;;;;;2.70;2.40;;;;;;;4.97;91.17;98116.40;109021;1256;72876;-82
2023/11/16 02:01:30;;;;;;;3.00;2.70;;;;;;;4.93;91.38;98122.85;108949;1256;73481;-82
2023/11/16 02:03:57;;;;;;;3.00;2.80;;;;;;;4.88;91.57;98128.20;108918;1255;59909;-82
2023/11/16 02:06:24;;;;;;;3.70;2.90;;;;;;;4.84;91.87;98126.84;108979;1256;59104;-82
2023/11/16 02:08:51;;;;;;;3.20;2.90;;;;;;;4.81;92.09;98131.06;108932;1256;72744;-82
2023/11/16 02:11:18;;;;;;;2.90;2.60;;;;;;;4.77;92.24;98134.98;108904;1256;72902;-82
2023/11/16 02:13:45;;;;;;;3.00;2.70;;;;;;;4.73;92.09;98135.73;108854;1256;71505;-82
2023/11/16 02:16:13;;;;;;;2.70;2.50;;;;;;;4.68;92.04;98139.11;108780;1256;60921;-82
2023/11/16 02:18:41;;;;;;;2.50;2.30;;;;;;;4.67;92.35;98147.34;108897;1256;59164;-82
2023/11/16 02:21:09;;;;;;;3.40;3.00;;;;;;;4.64;92.48;98152.65;108905;1256;73022;-82
2023/11/16 02:23:37;;;;;;;3.10;2.60;;;;;;;4.62;92.49;98154.85;108833;1259;74395;-82
2023/11/16 02:26:04;;;;;;;3.80;2.90;;;;;;;4.61;92.74;98156.00;108911;1256;73962;-82
2023/11/16 02:28:31;;;;;;;3.80;2.90;;;;;;;4.61;92.97;98160.25;108856;1256;62285;-82
2023/11/16 02:31:00;;;;;;;2.90;2.70;;;;;;;4.60;92.67;98160.80;108929;1256;59776;-82
2023/11/16 02:33:28;;;;;;;3.80;3.00;;;;;;;4.60;92.67;98159.74;108929;1254;72762;-82
2023/11/16 02:35:57;;;;;;;2.10;1.90;;;;;;;4.61;92.69;98159.20;109098;1254;72052;-82
2023/11/16 02:38:24;;;;;;;2.30;2.10;;;;;;;4.61;92.64;98163.08;109171;1254;71366;-83
2023/11/16 02:40:52;;;;;;;3.10;2.80;;;;;;;4.61;92.63;98165.20;108888;1259;59727;-82
2023/11/16 02:43:20;;;;;;;2.80;2.50;;;;;;;4.62;92.91;98172.62;108978;1256;59957;-82
2023/11/16 02:45:50;;;;;;;3.50;3.00;;;;;;;4.62;93.00;98179.16;108954;1256;74673;-82
2023/11/16 02:48:18;;;;;;;3.50;2.90;;;;;;;4.62;93.15;98186.60;108962;1256;73709;-82
2023/11/16 02:50:45;;;;;;;2.90;2.60;;;;;;;4.63;92.96;98185.85;108983;1255;71684;-83
2023/11/16 02:53:12;;;;;;;3.00;2.70;;;;;;;4.63;92.62;98183.70;108902;1257;62159;-81
2023/11/16 02:55:39;;;;;;;2.60;2.40;;;;;;;4.65;92.80;98184.52;108959;1256;59844;-82
2023/11/16 02:58:07;;;;;;;2.80;2.60;;;;;;;4.66;92.62;98185.88;108962;1256;73965;-82
2023/11/16 03:00:34;;;;;;;2.40;2.20;;;;;;;4.66;92.55;98189.25;108917;1256;74397;-83
2023/11/16 03:03:05;;;;;;;3.10;2.80;;;;;;;4.66;92.44;98198.48;108776;1256;71967;-82
2023/11/16 03:05:33;;;;;;;3.60;3.30;;;;;;;4.65;92.41;98204.91;108914;1255;61103;-82
2023/11/16 03:08:00;;;;;;;3.80;3.40;;;;;;;4.65;92.59;98214.13;108929;1255;59352;-82
2023/11/16 03:10:28;;;;;;;3.00;2.80;;;;;;;4.66;92.57;98215.16;108874;1256;72486;-82
2023/11/16 03:12:56;;;;;;;3.20;2.80;;;;;;;4.66;92.26;98216.89;108914;1256;74785;-82
2023/11/16 03:15:25;;;;;;;2.50;2.30;;;;;;;4.66;92.13;98225.05;108928;1255;72351;-83
2023/11/16 03:17:52;;;;;;;3.10;2.70;;;;;;;4.66;91.99;98220.27;108856;1256;60960;-82
2023/11/16 03:20:20;;;;;;;2.90;2.30;;;;;;;4.67;91.82;98223.45;108796;1256;60241;-83
2023/11/16 03:22:47;;;;;;;3.00;2.70;;;;;;;4.66;91.82;98223.11;108736;1256;73767;-81
2023/11/16 03:25:15;;;;;;;3.30;3.00;;;;;;;4.66;91.54;98228.45;108919;1256;74179;-81
2023/11/16 03:27:42;;;;;;;3.70;2.70;;;;;;;4.67;91.47;98226.64;108850;1256;71273;-81
2023/11/16 03:30:10;;;;;;;2.70;2.50;;;;;;;4.68;91.42;98231.39;108879;1260;62208;-82
2023/11/16 03:32:37;;;;;;;2.30;2.10;;;;;;;4.67;91.25;98233.70;108918;1256;60031;-83
2023/11/16 03:35:05;;;;;;;3.30;3.00;;;;;;;4.67;90.85;98234.43;108921;1255;72649;-83
2023/11/16 03:37:32;;;;;;;4.10;2.60;;;;;;;4.67;90.74;98233.39;108753;1256;74671;-83
2023/11/16 03:39:59;;;;;;;2.80;2.50;;;;;;;4.67;90.84;98237.45;108935;1256;72373;-82
2023/11/16 03:42:26;;;;;;;2.80;2.60;;;;;;;4.67;91.09;98237.27;108872;1256;61272;-81
2023/11/16 03:44:53;;;;;;;2.90;2.60;;;;;;;4.67;90.86;98241.35;108888;1256;58994;-82
2023/11/16 03:47:20;;;;;;;3.80;2.70;;;;;;;4.67;89.97;98243.30;108919;1256;72722;-81
2023/11/16 03:49:48;;;;;;;3.10;2.60;;;;;;;4.65;89.73;98243.73;108946;1256;72959;-81
2023/11/16 03:52:15;;;;;;;4.70;3.60;;;;;;;4.65;89.91;98249.77;108803;1257;71372;-83
2023/11/16 03:54:44;;;;;;;3.30;2.90;;;;;;;4.65;89.72;98253.69;108941;1257;61322;-82
2023/11/16 03:57:12;;;;;;;2.20;2.00;;;;;;;4.65;89.86;98254.59;108836;1256;60184;-84
2023/11/16 03:59:39;;;;;;;2.60;2.30;;;;;;;4.63;89.58;98251.27;108934;1257;72569;-83
2023/11/16 04:02:06;;;;;;;2.30;2.10;;;;;;;4.62;89.43;98253.29;108964;1256;72267;-83
2023/11/16 04:04:33;;;;;;;2.50;2.30;;;;;;;4.60;89.09;98250.38;108965;1256;71787;-82
2023/11/16 04:07:01;;;;;;;3.20;2.80;;;;;;;4.59;89.33;98260.38;108884;1260;59606;-83
2023/11/16 04:09:29;;;;;;;3.90;3.30;;;;;;;4.58;89.56;98262.89;108978;1256;60250;-83
2023/11/16 04:11:57;;;;;;;2.30;2.10;;;;;;;4.58;89.81;98259.89;108853;1256;73734;-82
2023/11/16 04:14:25;;;;;;;3.40;2.20;;;;;;;4.57;89.76;98255.83;108894;1257;73003;-82
2023/11/16 04:16:52;;;;;;;3.00;2.70;;;;;;;4.56;89.43;98257.15;108838;1256;72540;-83
2023/11/16 04:19:20;;;;;;;2.50;2.20;;;;;;;4.54;89.40;98248.90;108877;1260;61072;-82
2023/11/16 04:21:50;;;;;;;2.70;2.50;;;;;;;4.54;89.45;98248.20;108939;1257;60542;-82
2023/11/16 04:24:18;;;;;;;2.50;2.30;;;;;;;4.52;89.24;98247.38;108932;1256;72597;-82
2023/11/16 04:26:48;;;;;;;4.40;3.30;;;;;;;4.50;89.61;98247.67;109083;1256;72332;-82
2023/11/16 04:29:16;;;;;;;2.60;2.40;;;;;;;4.47;89.90;98254.71;109235;1256;71402;-81
2023/11/16 04:31:45;;;;;;;2.40;2.20;;;;;;;4.46;90.21;98257.60;109032;1256;60933;-82
2023/11/16 04:34:12;;;;;;;3.10;2.80;;;;;;;4.45;90.58;98261.73;108937;1256;60174;-81
2023/11/16 04:36:41;;;;;;;2.70;2.50;;;;;;;4.46;90.88;98269.29;108930;1256;73899;-81
2023/11/16 04:39:11;;;;;;;2.60;2.40;;;;;;;4.47;91.06;98266.63;108924;1259;74372;-81
2023/11/16 04:41:41;;;;;;;3.90;2.60;;;;;;;4.48;91.02;98267.98;108882;1256;72555;-81
2023/11/16 04:44:08;;;;;;;3.50;3.20;;;;;;;4.48;91.14;98266.41;108900;1256;59911;-81
2023/11/16 04:46:36;;;;;;;4.20;2.80;;;;;;;4.50;91.16;98269.83;108878;1257;59284;-81
2023/11/16 04:49:04;;;;;;;4.70;3.00;;;;;;;4.52;91.36;98277.90;108932;1259;74877;-82
2023/11/16 04:51:32;;;;;;;6.20;3.30;;;;;;;4.53;91.33;98273.23;108987;1257;72231;-82
2023/11/16 04:53:59;;;;;;;5.30;4.80;;;;;;;4.54;91.32;98275.10;108949;1258;70507;-81
2023/11/16 04:56:25;;;;;;;4.70;3.40;;;;;;;4.57;91.51;98275.71;108948;1257;62174;-82
2023/11/16 04:58:52;;;;;;;4.20;3.80;;;;;;;4.58;91.39;98275.28;108906;1257;61481;-82
2023/11/16 05:01:20;;;;;;;2.90;2.70;;;;;;;4.60;91.24;98280.54;108913;1258;73917;-82
2023/11/16 05:03:47;;;;;;;3.10;2.70;;;;;;;4.60;91.02;98285.48;108989;1258;74289;-81
2023/11/16 05:06:15;;;;;;;3.50;3.20;;;;;;;4.59;90.82;98288.37;108961;1257;73359;-81
2023/11/16 05:08:42;;;;;;;3.30;2.90;;;;;;;4.60;90.85;98291.87;108994;1259;61875;-82
2023/11/16 05:11:09;;;;;;;3.50;3.20;;;;;;;4.61;91.03;98293.80;108930;1260;60333;-82
2023/11/16 05:13:36;;;;;;;4.30;3.40;;;;;;;4.61;91.41;98295.04;108964;1259;74045;-82
2023/11/16 05:16:04;;;;;;;4.60;3.50;;;;;;;4.62;91.39;98299.41;108991;1258;73004;-81
2023/11/16 05:18:32;;;;;;;3.10;2.80;;;;;;;4.63;91.42;98297.23;109002;1257;71653;-82
2023/11/16 05:21:01;;;;;;;3.00;2.70;;;;;;;4.62;91.30;98295.14;108913;1256;60827;-81
2023/11/16 05:23:29;;;;;;;3.00;2.70;;;;;;;4.62;91.38;98291.06;108893;1257;59215;-82
2023/11/16 05:25:57;;;;;;;3.50;3.20;;;;;;;4.62;91.46;98299.95;108997;1259;72619;-82
2023/11/16 05:28:25;;;;;;;4.60;3.60;;;;;;;4.62;91.41;98297.46;109027;1257;72746;-82
2023/11/16 05:30:52;;;;;;;4.10;3.50;;;;;;;4.60;91.54;98300.55;108884;1257;71773;-82
2023/11/16 05:33:22;;;;;;;4.30;3.70;;;;;;;4.59;91.76;98301.66;108936;1254;60001;-82
2023/11/16 05:35:51;;;;;;;3.40;3.00;;;;;;;4.59;91.92;98304.86;108970;1257;59094;-82
2023/11/16 05:38:22;;;;;;;3.30;3.00;;;;;;;4.59;92.00;98309.13;109046;1259;74769;-82
2023/11/16 05:40:52;;;;;;;5.20;3.60;;;;;;;4.59;91.74;98312.64;108981;1256;72818;-82
2023/11/16 05:43:19;;;;;;;4.20;3.40;;;;;;;4.59;91.81;98311.97;108852;1256;72801;-82
2023/11/16 05:45:47;;;;;;;3.30;2.80;;;;;;;4.59;91.45;98318.36;108896;1256;62316;-82
2023/11/16 05:48:15;;;;;;;3.10;2.70;;;;;;;4.57;91.13;98316.65;108863;1260;59100;-82
2023/11/16 05:50:43;;;;;;;2.70;2.40;;;;;;;4.57;90.80;98321.65;109039;1258;72572;-81
2023/11/16 05:53:11;;;;;;;4.00;2.90;;;;;;;4.57;90.49;98318.64;109044;1256;73413;-82
2023/11/16 05:55:38;;;;;;;6.70;3.00;;;;;;;4.56;91.24;98321.66;108897;1258;72690;-81
2023/11/16 05:58:06;;;;;;;4.20;3.50;;;;;;;4.57;91.49;98318.29;108812;1255;60011;-83
2023/11/16 06:00:36;;;;;;;3.50;3.00;;;;;;;4.56;91.83;98324.16;108832;1256;60175;-83
2023/11/16 06:03:05;;;;;;;4.10;3.60;;;;;;;4.55;91.90;98323.31;108787;1257;73936;-82
2023/11/16 06:05:33;;;;;;;4.10;3.70;;;;;;;4.54;91.76;98327.45;109024;1254;74503;-82
2023/11/16 06:08:00;;;;;;;4.20;3.30;;;;;;;4.54;91.97;98328.88;108971;1255;72765;-82
2023/11/16 06:10:27;;;;;;;6.00;3.00;;;;;;;4.56;92.43;98336.59;108992;1256;60707;-81
2023/11/16 06:12:57;;;;;;;3.60;3.30;;;;;;;4.57;92.57;98339.73;108966;1257;60489;-83
2023/11/16 06:15:25;;;;;;;4.20;3.80;;;;;;;4.58;92.57;98336.15;108931;1257;73917;-82
2023/11/16 06:17:57;;;;;;;4.20;3.80;;;;;;;4.58;92.50;98339.70;109206;1257;73486;-82
2023/11/16 06:20:28;;;;;;;4.00;3.40;;;;;;;4.58;92.24;98340.73;109288;1254;70351;-81
2023/11/16 06:22:55;;;;;;;5.20;4.30;;;;;;;4.58;92.48;98345.17;109091;1255;59552;-82
2023/11/16 06:25:22;;;;;;;4.40;4.00;;;;;;;4.58;92.40;98340.03;108975;1254;59125;-81
2023/11/16 06:27:50;;;;;;;4.40;3.90;;;;;;;4.60;92.65;98347.38;109029;1255;72543;-81
2023/11/16 06:30:18;;;;;;;6.00;4.10;;;;;;;4.61;93.06;98350.16;109090;1258;75303;-81
2023/11/16 06:32:47;;;;;;;3.90;3.30;;;;;;;4.63;93.09;98351.85;108835;1256;71497;-81
2023/11/16 06:35:15;;;;;;;4.90;4.10;;;;;;;4.65;92.67;98347.67;108975;1257;60948;-82
2023/11/16 06:37:43;;;;;;;3.90;3.50;;;;;;;4.67;93.08;98350.60;108902;1254;59355;-82
2023/11/16 06:40:11;;;;;;;3.90;3.30;;;;;;;4.70;93.19;98354.02;109013;1256;71575;-82
2023/11/16 06:42:39;;;;;;;4.40;3.90;;;;;;;4.72;92.98;98358.05;108925;1256;73626;-83
2023/11/16 06:45:12;;;;;;;6.00;3.60;;;;;;;4.73;92.78;98359.39;108848;1254;73181;-83
2023/11/16 06:47:40;;;;;;;6.00;3.90;;;;;;;4.75;92.66;98360.56;108839;1256;60946;-81
2023/11/16 06:50:12;;;;;;;3.80;3.40;;;;;;;4.75;92.24;98361.61;108893;1257;61693;-82
2023/11/16 06:52:43;;;;;;;6.20;4.70;;;;;;;4.76;92.51;98363.15;108929;1254;74796;-81
2023/11/16 06:55:13;;;;;;;5.30;4.80;;;;;;;4.78;92.60;98363.42;108970;1254;74716;-81
2023/11/16 06:57:40;;;;;;;6.30;5.00;;;;;;;4.80;93.03;98370.27;108936;1254;72624;-83
2023/11/16 07:00:14;;;;;;;7.70;4.60;;;;;;;4.80;92.94;98372.70;108891;1254;60755;-81
2023/11/16 07:02:45;;;;;;;5.20;4.20;;;;;;;4.81;92.03;98380.49;108890;1254;60708;-82
2023/11/16 07:05:14;;;;;;;5.00;4.50;;;;;;;4.80;91.92;98378.05;108881;1257;73846;-82
2023/11/16 07:07:41;;;;;;;4.70;4.20;;;;;;;4.81;92.09;98384.55;108954;1257;74376;-83
2023/11/16 07:10:08;;;;;;;4.70;4.10;;;;;;;4.80;91.74;98386.20;108899;1256;72840;-81
2023/11/16 07:12:39;;;;;;;4.90;4.40;;;;;;;4.78;91.22;98386.66;108925;1254;61146;-82
2023/11/16 07:15:08;;;;;;;3.80;3.40;;;;;;;4.76;91.38;98382.85;108886;1254;60039;-80
2023/11/16 07:18:20;;;;;;;4.10;3.70;;;;;;;4.75;91.79;98389.64;108854;1254;73992;-86
2023/11/16 07:20:51;;;;;;;4.90;4.00;;;;;;;4.73;92.10;98392.77;108854;1254;73530;-85
2023/11/16 07:23:20;;;;;;;4.10;3.60;;;;;;;4.72;92.57;98392.61;108819;1257;72669;-83
2023/11/16 07:25:49;;;;;;;3.80;3.40;;;;;;;4.70;93.08;98395.54;108912;1255;61208;-84
2023/11/16 07:28:18;;;;;;;5.00;4.30;;;;;;;4.68;93.05;98399.54;108793;1254;59861;-81
2023/11/16 07:30:45;;;;;;;5.10;4.60;;;;;;;4.67;93.11;98393.38;108889;1254;73689;-81
2023/11/16 07:33:14;;;;;;;4.60;4.20;;;;;;;4.67;93.59;98394.61;109124;1254;76462;-83
2023/11/16 07:35:43;;;;;;;5.50;4.80;;;;;;;4.67;93.86;98396.02;108819;1254;71915;-81
2023/11/16 07:38:10;;;;;;;5.20;4.60;;;;;;;4.68;94.07;98394.20;108958;1254;59913;-82
2023/11/16 07:40:38;;;;;;;4.40;4.00;;;;;;;4.69;94.51;98397.35;109019;1254;59155;-82
2023/11/16 07:43:05;;;;;;;5.20;4.70;;;;;;;4.71;94.76;98399.91;108916;1254;74241;-83
2023/11/16 07:45:32;;;;;;;6.40;4.10;;;;;;;4.72;94.96;98398.98;108766;1254;74543;-84
2023/11/16 07:48:04;;;;;;;5.10;4.60;;;;;;;4.75;95.20;98405.42;108833;1253;73206;-84
2023/11/16 07:50:35;;;;;;;5.10;4.60;;;;;;;4.76;95.22;98403.60;108897;1257;60663;-84
2023/11/16 07:53:10;;;;;;;5.00;4.60;;;;;;;4.78;95.16;98407.05;109254;1254;59359;-88
2023/11/16 07:55:53;;;;;;;4.70;4.20;;;;;;;4.81;95.19;98410.83;108757;1255;74180;-82
2023/11/16 07:58:22;;;;;;;4.80;4.10;;;;;;;4.81;94.74;98409.55;108873;1254;74373;-85
2023/11/16 08:00:55;;;;;;;6.30;4.80;;;;;;;4.83;94.53;98413.55;108688;1256;72498;-85
2023/11/16 08:06:12;;;;;;;5.10;4.30;;;;;;;4.85;93.90;98416.14;108847;1256;61354;-84
2023/11/16 08:08:41;;;;;;;6.90;5.00;;;;;;;4.87;93.54;98410.55;108871;1256;76441;-82
2023/11/16 08:11:11;;;;;;;4.60;4.20;;;;;;;4.90;93.66;98414.66;109004;1254;75219;-84
2023/11/16 08:13:42;;;;;;;4.20;3.70;;;;;;;4.92;93.19;98412.08;108835;1256;73903;-83
2023/11/16 08:16:10;;;;;;;4.50;3.40;;;;;;;4.91;91.92;98417.29;108943;1254;62224;-83
2023/11/16 08:18:38;;;;;;;4.20;3.90;;;;;;;4.90;91.58;98413.45;108794;1254;59343;-84
2023/11/16 08:21:09;;;;;;;5.00;4.40;;;;;;;4.88;92.09;98410.48;108916;1257;72585;-83
2023/11/16 08:23:39;;;;;;;4.10;3.60;;;;;;;4.90;92.42;98418.21;108883;1257;73533;-84
2023/11/16 08:26:20;;;;;;;4.20;3.80;;;;;;;4.92;91.99;98414.05;108878;1254;74883;-85
2023/11/16 08:28:52;;;;;;;4.40;3.80;;;;;;;4.95;92.22;98414.97;108946;1257;61340;-84
2023/11/16 08:31:19;;;;;;;4.00;3.60;;;;;;;5.00;92.63;98418.65;108737;1254;60477;-84
2023/11/16 08:33:48;;;;;;;6.40;5.70;;;;;;;5.06;92.92;98418.55;108902;1256;72683;-84
2023/11/16 08:36:18;;;;;;;4.20;3.80;;;;;;;5.11;91.66;98429.52;108957;1256;74083;-84
2023/11/16 08:38:45;;;;;;;4.30;3.90;;;;;;;5.15;90.97;98424.35;108749;1254;73559;-82
2023/11/16 08:41:17;;;;;;;4.60;3.90;;;;;;;5.19;90.80;98426.31;108894;1256;60774;-84
2023/11/16 08:43:46;;;;;;;4.00;3.60;;;;;;;5.22;89.99;98428.83;108782;1258;60054;-85
2023/11/16 08:46:20;;;;;;;3.90;3.30;;;;;;;5.25;89.31;98429.76;108778;1256;73188;-83
2023/11/16 08:48:51;;;;;;;4.10;2.80;;;;;;;5.27;88.24;98434.25;108995;1254;73451;-84
2023/11/16 08:51:22;;;;;;;3.40;2.60;;;;;;;5.28;87.53;98434.89;108787;1255;74521;-85
2023/11/16 08:53:55;;;;;;;2.60;2.30;;;;;;;5.29;86.51;98432.90;108916;1254;61538;-84
2023/11/16 08:56:31;;;;;;;2.70;2.40;;;;;;;5.30;85.78;98433.39;108715;1256;61601;-85
2023/11/16 08:59:17;;;;;;;2.50;2.30;;;;;;;5.32;85.86;98426.73;108643;1257;73898;-84
2023/11/16 09:01:51;;;;;;;3.10;2.80;;;;;;;5.35;86.38;98427.14;108774;1257;74647;-83
2023/11/16 09:04:23;;;;;;;4.60;2.50;;;;;;;5.39;86.19;98429.27;109128;1256;71802;-82
2023/11/16 09:06:52;;;;;;;2.50;1.90;;;;;;;5.42;84.96;98434.97;109362;1256;58945;-83
2023/11/16 09:09:38;;;;;;;5.10;2.50;;;;;;;5.44;84.79;98428.29;109217;1256;61338;-83
2023/11/16 09:12:12;;;;;;;2.90;2.60;;;;;;;5.49;84.45;98422.92;109131;1254;73541;-84
2023/11/16 09:14:41;;;;;;;2.60;2.40;;;;;;;5.52;84.71;98419.20;109098;1255;73954;-82
2023/11/16 09:17:18;;;;;;;3.80;3.10;;;;;;;5.56;84.33;98412.62;108920;1255;72769;-82
2023/11/16 09:19:51;;;;;;;2.70;2.20;;;;;;;5.62;84.51;98416.80;108789;1256;60945;-83
2023/11/16 09:22:19;;;;;;;2.80;2.60;;;;;;;5.67;84.42;98413.87;108865;1254;60793;-81
2023/11/16 09:24:48;;;;;;;2.50;2.20;;;;;;;5.74;84.96;98417.42;108791;1256;73165;-84
2023/11/16 09:27:17;;;;;;;3.10;2.40;;;;;;;5.85;84.62;98416.20;108909;1258;75330;-84
2023/11/16 09:29:47;;;;;;;4.00;2.70;;;;;;;5.94;84.11;98422.84;108837;1257;73597;-84
2023/11/16 09:32:14;;;;;;;2.60;2.00;;;;;;;6.04;83.71;98422.91;108850;1256;61340;-83
2023/11/16 09:34:41;;;;;;;3.10;2.40;;;;;;;6.13;84.13;98419.25;108919;1254;59224;-83
2023/11/16 09:37:08;;;;;;;2.40;2.20;;;;;;;6.23;84.19;98420.35;108960;1254;74696;-83
2023/11/16 09:39:36;;;;;;;2.70;2.50;;;;;;;6.34;83.71;98418.73;108900;1254;73192;-84
2023/11/16 09:42:05;;;;;;;3.40;2.30;;;;;;;6.44;82.77;98424.77;108857;1254;73662;-83
2023/11/16 09:44:32;;;;;;;3.40;1.90;;;;;;;6.53;81.71;98422.73;108936;1254;61969;-84
2023/11/16 09:47:02;;;;;;;3.30;2.90;;;;;;;6.62;81.33;98418.31;108820;1256;60165;-82
2023/11/16 09:49:35;;;;;;;5.40;2.50;;;;;;;6.66;81.32;98417.58;108935;1254;74950;-82
2023/11/16 09:52:15;;;;;;;2.80;2.50;;;;;;;6.71;81.67;98413.94;108690;1254;75126;-84
2023/11/16 09:54:43;;;;;;;3.00;2.30;;;;;;;6.73;80.50;98404.55;108713;1254;72453;-83
2023/11/16 09:57:14;;;;;;;3.50;2.80;;;;;;;6.77;80.85;98397.79;108778;1254;61102;-84
2023/11/16 09:59:44;;;;;;;3.40;2.20;;;;;;;6.84;81.16;98397.94;108869;1255;59162;-83
2023/11/16 10:02:14;;;;;;;2.30;2.10;;;;;;;6.89;79.47;98396.60;108895;1254;74573;-82
2023/11/16 10:04:43;;;;;;;2.30;1.70;;;;;;;6.97;77.39;98397.45;108859;1255;74952;-85
2023/11/16 10:07:16;;;;;;;4.00;1.90;;;;;;;7.04;76.76;98390.25;108811;1254;73949;-83
2023/11/16 10:09:43;;;;;;;1.90;1.80;;;;;;;7.13;76.07;98393.34;108831;1256;61803;-84
2023/11/16 10:12:12;;;;;;;2.20;2.00;;;;;;;7.19;75.72;98386.41;108707;1254;61554;-84
2023/11/16 10:14:40;;;;;;;2.00;1.80;;;;;;;7.25;75.62;98378.08;108862;1256;74167;-84
2023/11/16 10:17:07;;;;;;;3.30;2.20;;;;;;;7.36;75.75;98384.06;108951;1255;75023;-84
2023/11/16 10:19:38;;;;;;;2.30;1.60;;;;;;;7.44;74.20;98387.33;108668;1256;72593;-85
2023/11/16 10:22:14;;;;;;;2.50;2.30;;;;;;;7.57;74.40;98379.82;108702;1256;59796;-84
2023/11/16 10:24:44;;;;;;;3.20;1.90;;;;;;;7.69;74.02;98378.42;108752;1255;59804;-84
2023/11/16 10:27:12;;;;;;;3.50;2.40;;;;;;;7.85;73.81;98374.48;108555;1256;75948;-84
2023/11/16 10:29:44;;;;;;;2.00;1.80;;;;;;;8.02;73.64;98372.04;108713;1256;75002;-85
2023/11/16 10:32:24;;;;;;;2.10;1.90;;;;;;;8.20;72.95;98370.95;108678;1256;71084;-85
2023/11/16 10:34:54;;;;;;;3.20;2.20;;;;;;;8.38;71.51;98368.09;108777;1256;59497;-84
2023/11/16 10:37:21;;;;;;;2.00;1.80;;;;;;;8.54;70.85;98370.37;108830;1255;59762;-85
2023/11/16 10:39:52;;;;;;;2.00;1.70;;;;;;;8.69;69.72;98373.54;108838;1256;74022;-85
2023/11/16 10:42:20;;;;;;;2.50;1.80;;;;;;;8.86;69.16;98360.91;108624;1256;73634;-86
2023/11/16 10:44:47;;;;;;;2.70;1.60;;;;;;;9.02;68.56;98357.05;108934;1256;71915;-86
2023/11/16 10:47:16;;;;;;;2.80;1.90;;;;;;;9.17;67.98;98359.10;108864;1254;59198;-83
2023/11/16 10:49:47;;;;;;;2.20;1.30;;;;;;;9.30;66.61;98355.55;108801;1256;85436;-84
2023/11/16 10:52:15;;;;;;;2.00;1.50;;;;;;;9.44;66.69;98357.15;108851;1256;74755;-83
2023/11/16 10:54:46;;;;;;;5.70;1.80;;;;;;;9.60;66.09;98361.68;108914;1256;75370;-82
2023/11/16 10:57:15;;;;;;;2.30;1.40;;;;;;;9.70;63.38;98364.76;108899;1255;72263;-83
2023/11/16 10:59:46;;;;;;;1.90;1.30;;;;;;;9.76;63.15;98367.98;108882;1255;61215;-83
2023/11/16 11:02:15;;;;;;;1.70;1.60;;;;;;;9.79;63.73;98361.15;108751;1256;60792;-84
2023/11/16 11:04:53;;;;;;;2.60;1.80;;;;;;;9.87;64.16;98364.19;108997;1256;74885;-84
2023/11/16 11:07:31;;;;;;;3.00;1.30;;;;;;;9.98;63.99;98359.89;108977;1255;74643;-84
2023/11/16 11:10:00;;;;;;;3.10;2.10;;;;;;;10.17;64.16;98365.05;108820;1254;73854;-81
2023/11/16 11:12:28;;;;;;;1.70;1.60;;;;;;;10.35;64.57;98358.65;108805;1255;61475;-84
2023/11/16 11:14:56;;;;;;;2.90;1.80;;;;;;;10.49;64.52;98363.77;108855;1256;60979;-83
2023/11/16 11:17:26;;;;;;;2.90;2.00;;;;;;;10.59;63.35;98355.75;108999;1255;73737;-85
2023/11/16 11:19:58;;;;;;;1.90;1.20;;;;;;;10.60;60.57;98358.16;108878;1256;73414;-83
2023/11/16 11:22:27;;;;;;;2.00;1.40;;;;;;;10.53;59.20;98357.08;108978;1256;73273;-83
2023/11/16 11:24:55;;;;;;;1.50;1.40;;;;;;;10.44;59.99;98351.75;108977;1256;61031;-82
2023/11/16 11:27:25;;;;;;;4.10;1.70;;;;;;;10.34;60.55;98352.80;108913;1254;61016;-82
2023/11/16 11:29:54;;;;;;;1.90;1.30;;;;;;;10.27;59.86;98362.17;108878;1256;74494;-82
2023/11/16 11:32:25;;;;;;;2.50;2.20;;;;;;;10.13;58.91;98359.02;108952;1255;74598;-82
2023/11/16 11:34:53;;;;;;;6.20;2.00;;;;;;;10.03;58.95;98358.62;109008;1253;72789;-82
2023/11/16 11:37:20;;;;;;;2.20;1.70;;;;;;;9.94;59.15;98358.13;108838;1254;59494;-79
2023/11/16 11:39:49;;;;;;;1.50;1.40;;;;;;;9.94;59.74;98356.20;108953;1256;60267;-82
2023/11/16 11:42:16;;;;;;;1.50;1.40;;;;;;;9.99;60.31;98354.08;108841;1256;72690;-82
2023/11/16 11:44:52;;;;;;;2.90;2.60;;;;;;;10.07;59.85;98349.77;108923;1254;73287;-83